AirNav   Pilot Hours Calculator
 
 986 users online  

0TN4 Physicians Medical Regional Center Heliport
Knoxville, Tennessee, USA

GOING TO KNOXVILLE?


FAA INFORMATION EFFECTIVE 07 NOVEMBER 2019

Location

FAA Identifier: 0TN4
Lat/Long: 35-59-28.3300N 083-55-38.1800W
35-59.472167N 083-55.636333W
35.9912028,-83.9272722
(estimated)
Elevation: 790 ft. / 241 m (estimated)
Variation: 03W (1985)
From city: 1 mile N of KNOXVILLE, TN
Time zone: UTC -5 (UTC -4 during Daylight Saving Time)
Zip code: 37917

Heliport Operations

Heliport use: Private use, MEDICAL.
Activation date: 07/1986
Control tower: no
ARTCC: ATLANTA CENTER
FSS: NASHVILLE FLIGHT SERVICE STATION
Attendance: CONTINUOUS
Wind indicator: lighted
Segmented circle: no
Lights: FOR PERIMETER LGTS CALL 615-545-7896.

Heliport Communications

UNICOM: 123.05
WX AWOS-3 at DKX (3 nm SE): 125.375 (865-579-6151)
WX ASOS at TYS (11 nm S): PHONE 865-981-4053

Nearby radio navigation aids

VOR radial/distance  VOR name  Freq  Var
VXVr346/5.4VOLUNTEER VORTAC116.4003W

 
NDB name  Hdg/Dist  Freq  Var  ID
JEFFERSON256/23.034604WJXT .--- -..- -

Heliport Services

Runway Information

Helipad H1

Dimensions: 50 x 50 ft. / 15 x 15 m
Surface: concrete
Runway edge lights: PERI
Latitude: 35-59.472167N
Longitude: 083-55.636333W
Elevation: 790.0 ft.
Traffic pattern: leftleft

Heliport Ownership and Management from official FAA records

Ownership: Privately-owned
Owner: PRMC
900 E. OAK HILL AVE
KNOXVILLE, TN 37917
Phone 865-545-7954
Manager: DAN MCGRAW
900 E. OAK HILL AVE
KNOXVILLE, TN 37917
Phone (865) 545-8073

Heliport Operational Statistics

Aircraft based on the field: 2
Single engine airplanes: 1
Helicopters: 1
    

Additional Remarks

FOR CD CTC ATLANTA ARTCC AT 770-210-7692.

Instrument Procedures

There are no published instrument procedures at 0TN4.

Some nearby airports with instrument procedures:

KDKX - Knoxville Downtown Island Airport (3 nm SE)
KTYS - Mc Ghee Tyson Airport (11 nm S)
KGKT - Gatlinburg-Pigeon Forge Airport (21 nm E)
KJAU - Colonel Tommy C Stiner Airfield (24 nm NW)
KMOR - Moore-Murrell Airport (29 nm NE)
 
Loc | Ops | Rwys | IFR | FBO | Links
Com | Nav | Svcs | Stats | Notes
Area around 0TN4 (Physicians Medical Regional Center Heliport)
 
Road maps at: MapQuest Bing Google
 
Aerial photo
No photo
 
Sectional chart

 
Airport distance calculator
Flying to Physicians Medical Regional Center Heliport? Find the distance to fly.

From to 0TN4

Sunrise and sunset
Times for 11-Nov-2019
 Local
(UTC-5)
 Zulu
(UTC)
Morning civil twilight06:4211:42
Sunrise07:0912:09
Sunset17:3022:30
Evening civil twilight17:5722:57

Current date and time
Zulu (UTC)  11-Nov-2019 23:09:56
Local (UTC-5)  11-Nov-2019 18:09:56
 
METAR
KDKX 
3nm SE 
112255Z AUTO 00000KT 10SM OVC100 15/08 A2999 RMK A01
KTYS 
11nm S 
112253Z 22010KT 10SM FEW050 BKN110 BKN250 15/07 A2999 RMK AO2 SLP154 T01500067
KOQT 
15nm W 
112253Z AUTO 00000KT 10SM -RA OVC100 14/08 A3000 RMK AO2 RAB26 SLP162 P0000 T01440083
TAF
KTYS 
11nm S 
111720Z 1118/1218 23012KT P6SM BKN150 FM120300 23010KT 6SM -RA BKN050 FM120500 25009KT 4SM -RA OVC020 FM120800 32008KT 3SM -RAPL OVC010 FM121000 36010G20KT 3SM -SN OVC007 FM121300 36012G22KT P6SM OVC015 FM121600 36012G22KT P6SM BKN020
NOTAMs
Click for the latest NOTAMs
NOTAMs are issued by the DoD/FAA and will open in a separate window not controlled by AirNav.

 

 
 

Would you like to see your business listed on this page?

 If your business provides an interesting product or service to pilots, flight crews, aircraft, or users of the Physicians Medical Regional Center Heliport, you should consider listing it here.  To start the listing process, click on the button below
 
Add a business
 

Other Pages about Physicians Medical Regional Center Heliport

Update a link
 
Copyright © AirNav, LLC. All rights reserved. Privacy Policy  Contact